createdAt,value
2018-04-13T00:02:07.649Z,10.00
2018-04-13T00:04:36.087Z,9.97
2018-04-13T00:07:04.489Z,9.85
2018-04-13T00:09:36.405Z,9.74
2018-04-13T00:12:04.884Z,9.73
2018-04-13T00:14:33.389Z,9.77
2018-04-13T00:17:01.815Z,9.86
2018-04-13T00:19:30.291Z,9.78
2018-04-13T00:21:59.476Z,9.79
2018-04-13T00:24:27.850Z,9.78
2018-04-13T00:26:56.275Z,9.76
2018-04-13T00:29:25.362Z,9.80
2018-04-13T00:31:54.027Z,9.79
2018-04-13T00:34:22.467Z,9.86
2018-04-13T00:36:50.992Z,9.84
2018-04-13T00:39:19.431Z,9.82
2018-04-13T00:41:47.852Z,9.80
2018-04-13T00:44:16.404Z,9.68
2018-04-13T00:46:44.800Z,9.70
2018-04-13T00:49:15.303Z,9.90
2018-04-13T00:51:43.736Z,9.73
2018-04-13T00:54:12.220Z,9.59
2018-04-13T00:56:40.615Z,9.59
2018-04-13T00:59:09.079Z,9.54
2018-04-13T01:01:46.064Z,9.46
2018-04-13T01:04:14.504Z,9.53
2018-04-13T01:06:45.037Z,9.26
2018-04-13T01:09:13.844Z,9.03
2018-04-13T01:11:42.315Z,8.87
2018-04-13T01:14:10.732Z,8.83
2018-04-13T01:16:39.155Z,8.81
2018-04-13T01:19:07.584Z,8.89
2018-04-13T01:21:36.426Z,8.93
2018-04-13T01:24:04.837Z,8.95
2018-04-13T01:26:33.260Z,8.97
2018-04-13T01:29:01.766Z,8.95
2018-04-13T01:31:30.163Z,8.82
2018-04-13T01:33:58.988Z,8.85
2018-04-13T01:36:27.443Z,8.77
2018-04-13T01:38:55.879Z,8.57
2018-04-13T01:41:24.376Z,8.48
2018-04-13T01:43:53.008Z,8.47
2018-04-13T01:55:09.693Z,8.37
2018-04-13T01:57:38.121Z,8.33
2018-04-13T02:00:06.550Z,8.27
2018-04-13T02:02:35.102Z,8.26
2018-04-13T02:05:03.532Z,8.24
2018-04-13T02:07:31.995Z,8.44
2018-04-13T02:10:00.440Z,8.21
2018-04-13T02:12:28.940Z,8.03
2018-04-13T02:14:59.075Z,8.04
2018-04-13T02:17:27.504Z,8.03
2018-04-13T02:19:55.899Z,8.00
2018-04-13T02:22:24.306Z,7.92
2018-04-13T02:24:52.690Z,7.93
2018-04-13T02:27:21.120Z,7.93
2018-04-13T02:29:51.518Z,7.92
2018-04-13T02:32:19.954Z,7.75
2018-04-13T02:34:48.384Z,7.61
2018-04-13T02:37:20.919Z,7.57
2018-04-13T02:39:49.390Z,7.58
2018-04-13T02:42:17.979Z,7.56
2018-04-13T02:44:48.228Z,7.61
2018-04-13T02:47:16.649Z,7.72
2018-04-13T02:49:45.100Z,7.75
2018-04-13T02:52:15.953Z,7.67
2018-04-13T02:54:46.319Z,7.65
2018-04-13T02:57:14.782Z,7.61
2018-04-13T02:59:49.315Z,7.57
2018-04-13T03:02:17.738Z,7.59
2018-04-13T03:04:46.175Z,7.68
2018-04-13T03:07:14.603Z,7.77
2018-04-13T03:09:43.013Z,7.61
2018-04-13T03:12:15.575Z,7.51
2018-04-13T03:14:44.023Z,7.26
2018-04-13T03:17:12.447Z,7.17
2018-04-13T03:19:40.887Z,7.10
2018-04-13T03:22:09.288Z,7.07
2018-04-13T03:24:38.014Z,7.08
2018-04-13T03:27:06.428Z,7.24
2018-04-13T03:29:37.527Z,7.21
2018-04-13T03:32:06.011Z,7.08
2018-04-13T03:34:34.438Z,7.02
2018-04-13T03:37:02.927Z,6.97
2018-04-13T03:39:31.357Z,6.98
2018-04-13T03:41:59.832Z,7.04
2018-04-13T03:44:28.396Z,7.00
2018-04-13T03:46:56.835Z,7.12
2018-04-13T03:49:27.115Z,7.03
2018-04-13T03:51:57.640Z,7.01
2018-04-13T03:54:26.527Z,7.03
2018-04-13T03:56:54.895Z,6.91
2018-04-13T03:59:23.343Z,6.99
2018-04-13T04:01:51.835Z,6.80
2018-04-13T04:04:20.248Z,6.80
2018-04-13T04:06:48.667Z,6.90
2018-04-13T04:09:17.171Z,6.78
2018-04-13T04:11:45.623Z,6.95
2018-04-13T04:14:14.122Z,6.82
2018-04-13T04:16:44.504Z,6.66
2018-04-13T04:19:12.919Z,6.60
2018-04-13T04:21:47.433Z,6.56
2018-04-13T04:24:22.012Z,6.52
2018-04-13T04:26:50.392Z,6.66
2018-04-13T04:29:18.820Z,6.62
2018-04-13T04:31:48.123Z,6.57
2018-04-13T04:34:16.564Z,6.56
2018-04-13T04:36:44.966Z,6.59
2018-04-13T04:39:13.364Z,6.61
2018-04-13T04:41:41.799Z,6.57
2018-04-13T04:44:10.872Z,6.61
2018-04-13T04:46:41.422Z,6.59
2018-04-13T04:49:09.843Z,6.61
2018-04-13T04:51:38.336Z,6.63
2018-04-13T04:54:06.778Z,6.66
2018-04-13T04:56:37.299Z,6.68
2018-04-13T04:59:05.735Z,6.70
2018-04-13T05:01:34.136Z,6.70
2018-04-13T05:04:02.670Z,6.78
2018-04-13T05:06:31.073Z,6.80
2018-04-13T05:09:01.550Z,6.95
2018-04-13T05:11:29.982Z,7.03
2018-04-13T05:13:58.660Z,6.94
2018-04-13T05:16:27.070Z,6.96
2018-04-13T05:18:55.499Z,7.01
2018-04-13T05:21:23.963Z,7.01
2018-04-13T05:23:52.404Z,7.11
2018-04-13T05:26:20.812Z,7.21
2018-04-13T05:28:49.231Z,7.40
2018-04-13T05:31:17.968Z,7.58
2018-04-13T05:33:46.389Z,7.62
2018-04-13T05:36:14.790Z,7.66
2018-04-13T05:38:43.240Z,7.68
2018-04-13T05:41:11.663Z,7.87
2018-04-13T05:43:40.766Z,8.14
2018-04-13T05:46:11.195Z,8.34
2018-04-13T05:48:39.643Z,8.45
2018-04-13T05:51:08.080Z,8.61
2018-04-13T05:53:36.527Z,8.75
2018-04-13T05:56:04.957Z,8.98
2018-04-13T05:58:33.351Z,9.17
2018-04-13T06:01:03.794Z,9.40
2018-04-13T06:03:37.221Z,9.45
2018-04-13T06:06:08.722Z,9.59
2018-04-13T06:08:39.106Z,9.76
2018-04-13T06:11:07.512Z,9.92
2018-04-13T06:13:35.966Z,9.84
2018-04-13T06:16:04.387Z,9.87
2018-04-13T06:18:32.851Z,9.93
2018-04-13T06:21:04.587Z,9.89
2018-04-13T06:23:33.153Z,9.82
2018-04-13T06:26:01.584Z,9.96
2018-04-13T06:28:29.992Z,9.96
2018-04-13T06:31:00.400Z,10.09
2018-04-13T06:33:28.853Z,10.23
2018-04-13T06:35:58.683Z,10.26
2018-04-13T06:38:27.098Z,10.32
2018-04-13T06:40:55.655Z,10.39
2018-04-13T06:43:24.062Z,10.39
2018-04-13T06:45:52.517Z,10.44
2018-04-13T06:48:21.003Z,10.28
2018-04-13T06:50:49.461Z,10.24
2018-04-13T06:53:17.915Z,10.25
2018-04-13T06:55:47.815Z,10.29
2018-04-13T06:58:16.269Z,10.32
2018-04-13T07:00:44.697Z,10.40
2018-04-13T07:03:13.099Z,10.40
2018-04-13T07:05:41.543Z,10.46
2018-04-13T07:08:11.385Z,10.52
2018-04-13T07:10:39.827Z,10.63
2018-04-13T07:13:09.464Z,10.73
2018-04-13T07:15:37.895Z,10.89
2018-04-13T07:18:06.325Z,10.93
2018-04-13T07:20:34.876Z,10.85
2018-04-13T07:23:03.308Z,11.09
2018-04-13T07:25:31.719Z,11.28
2018-04-13T07:28:01.148Z,11.34
2018-04-13T07:30:29.579Z,11.57
2018-04-13T07:32:57.986Z,11.70
2018-04-13T07:35:26.435Z,12.08
2018-04-13T07:37:55.201Z,12.61
2018-04-13T07:40:23.606Z,13.10
2018-04-13T07:42:53.005Z,13.32
2018-04-13T07:45:21.443Z,13.56
2018-04-13T07:47:49.940Z,13.90
2018-04-13T07:50:18.339Z,14.46
2018-04-13T07:52:46.765Z,14.42
2018-04-13T07:55:15.127Z,14.33
2018-04-13T07:57:43.922Z,14.09
2018-04-13T08:00:12.350Z,13.62
2018-04-13T08:02:40.758Z,13.61
2018-04-13T08:05:10.276Z,13.47
2018-04-13T08:07:38.698Z,13.52
2018-04-13T08:10:09.551Z,13.46
2018-04-13T08:12:37.959Z,13.41
2018-04-13T08:15:07.955Z,13.44
2018-04-13T08:17:36.334Z,13.27
2018-04-13T08:20:05.055Z,13.30
2018-04-13T08:22:33.469Z,13.36
2018-04-13T08:25:03.443Z,13.58
2018-04-13T08:27:33.243Z,13.73
2018-04-13T08:30:03.553Z,13.52
2018-04-13T08:32:31.953Z,13.78
2018-04-13T08:35:00.333Z,13.67
2018-04-13T08:37:28.822Z,13.69
2018-04-13T08:39:57.215Z,13.69
2018-04-13T08:42:25.630Z,13.74
2018-04-13T08:44:54.066Z,13.66
2018-04-13T08:47:23.964Z,13.63
2018-04-13T08:49:52.391Z,13.73
2018-04-13T08:52:21.065Z,13.70
2018-04-13T08:54:49.519Z,13.43
2018-04-13T08:57:17.933Z,13.53
2018-04-13T08:59:47.771Z,13.58
2018-04-13T09:02:16.283Z,13.43
2018-04-13T09:04:46.218Z,13.36
2018-04-13T09:07:14.582Z,13.34
2018-04-13T09:09:44.296Z,13.42
2018-04-13T09:12:12.705Z,13.09
2018-04-13T09:14:41.096Z,13.27
2018-04-13T09:17:11.509Z,13.35
2018-04-13T09:19:40.210Z,13.35
2018-04-13T09:22:10.002Z,13.32
2018-04-13T09:24:40.181Z,13.17
2018-04-13T09:27:08.554Z,13.25
2018-04-13T09:29:37.023Z,13.16
2018-04-13T09:32:05.427Z,13.31
2018-04-13T09:34:33.848Z,13.32
2018-04-13T09:37:03.827Z,13.27
2018-04-13T09:39:32.393Z,13.06
2018-04-13T09:42:01.862Z,12.95
2018-04-13T09:44:30.248Z,12.55
2018-04-13T09:46:58.673Z,12.62
2018-04-13T09:49:28.176Z,12.40
2018-04-13T09:51:58.182Z,12.24
2018-04-13T09:54:26.544Z,12.35
2018-04-13T09:56:55.008Z,12.30
2018-04-13T09:59:26.891Z,12.20
2018-04-13T10:01:56.787Z,12.07
2018-04-13T10:04:31.212Z,11.95
2018-04-13T10:07:01.045Z,11.94
2018-04-13T10:09:30.468Z,11.82
2018-04-13T10:11:59.073Z,11.84
2018-04-13T10:14:27.526Z,11.82
2018-04-13T10:16:55.929Z,11.77
2018-04-13T10:19:24.353Z,11.63
2018-04-13T10:21:55.457Z,11.33
2018-04-13T10:24:23.849Z,11.39
2018-04-13T10:26:52.362Z,11.50
2018-04-13T10:29:21.484Z,11.59
2018-04-13T10:31:49.889Z,11.43
2018-04-13T10:34:19.345Z,11.52
2018-04-13T10:36:48.128Z,11.75
2018-04-13T10:39:16.487Z,11.73
2018-04-13T10:41:44.874Z,11.78
2018-04-13T10:44:13.299Z,11.81
2018-04-13T10:46:43.173Z,11.85
2018-04-13T10:49:11.577Z,11.74
2018-04-13T10:51:39.976Z,11.94
2018-04-13T10:54:08.393Z,12.12
2018-04-13T10:56:37.805Z,12.00
2018-04-13T10:59:06.228Z,12.08
2018-04-13T11:01:34.600Z,12.09
2018-04-13T11:04:04.505Z,12.08
2018-04-13T11:06:32.964Z,12.06
2018-04-13T11:09:01.440Z,12.39
2018-04-13T11:11:29.871Z,12.38
2018-04-13T11:13:58.351Z,12.28
2018-04-13T11:16:26.726Z,12.51
2018-04-13T11:18:55.289Z,12.56
2018-04-13T11:21:23.696Z,12.73
2018-04-13T11:23:52.090Z,12.66
2018-04-13T11:26:20.446Z,12.57
2018-04-13T11:28:48.878Z,12.46
2018-04-13T11:31:17.261Z,12.53
2018-04-13T11:33:45.659Z,12.75
2018-04-13T11:36:15.531Z,12.53
2018-04-13T11:38:45.541Z,12.63
2018-04-13T11:41:14.173Z,12.64
2018-04-13T11:43:42.590Z,12.73
2018-04-13T11:46:10.985Z,12.83
2018-04-13T11:48:39.530Z,13.04
2018-04-13T11:51:07.921Z,13.24
2018-04-13T11:53:36.336Z,13.30
2018-04-13T11:56:05.159Z,13.42
2018-04-13T11:58:33.582Z,13.48
2018-04-13T12:01:01.967Z,13.60
2018-04-13T12:03:31.604Z,13.35
2018-04-13T12:06:00.133Z,13.39
2018-04-13T12:08:28.532Z,13.28
2018-04-13T12:10:56.954Z,13.17
2018-04-13T12:13:25.410Z,13.18
2018-04-13T12:15:53.755Z,13.04
2018-04-13T12:18:22.316Z,13.17
2018-04-13T12:20:50.667Z,13.13
2018-04-13T12:23:20.291Z,13.29
2018-04-13T12:25:48.792Z,13.59
2018-04-13T12:28:17.143Z,13.74
2018-04-13T12:30:45.508Z,13.95
2018-04-13T12:33:13.889Z,14.01
2018-04-13T12:35:42.219Z,14.26
2018-04-13T12:38:10.552Z,14.22
2018-04-13T12:40:38.980Z,14.29
2018-04-13T12:43:07.397Z,14.12
2018-04-13T12:45:36.709Z,14.22
2018-04-13T12:48:05.195Z,14.34
2018-04-13T12:50:33.731Z,14.25
2018-04-13T12:53:02.078Z,14.51
2018-04-13T12:55:31.492Z,14.54
2018-04-13T12:58:01.909Z,14.56
2018-04-13T13:00:30.330Z,14.70
2018-04-13T13:02:58.718Z,14.59
2018-04-13T13:05:27.280Z,14.59
2018-04-13T13:07:55.689Z,14.34
2018-04-13T13:10:24.087Z,14.45
2018-04-13T13:12:52.710Z,14.30
2018-04-13T13:15:22.107Z,14.57
2018-04-13T13:17:51.918Z,14.40
2018-04-13T13:20:20.372Z,14.56
2018-04-13T13:22:48.835Z,14.28
2018-04-13T13:25:17.248Z,14.55
2018-04-13T13:27:45.712Z,14.65
2018-04-13T13:30:14.065Z,14.51
2018-04-13T13:32:42.463Z,14.48
2018-04-13T13:35:10.882Z,14.52
2018-04-13T13:37:39.277Z,14.69
2018-04-13T13:40:08.938Z,14.71
2018-04-13T13:42:37.424Z,14.66
2018-04-13T13:45:06.763Z,14.72
2018-04-13T13:47:35.162Z,14.64
2018-04-13T13:50:03.539Z,14.47
2018-04-13T13:52:32.149Z,14.47
2018-04-13T13:55:01.564Z,14.56
2018-04-13T13:57:30.987Z,14.61
2018-04-13T13:59:59.479Z,14.77
2018-04-13T14:02:27.880Z,14.63
2018-04-13T14:04:56.366Z,14.62
2018-04-13T14:07:24.774Z,14.39
2018-04-13T14:09:53.361Z,14.35
2018-04-13T14:12:21.813Z,14.35
2018-04-13T14:14:50.217Z,14.37
2018-04-13T14:17:19.640Z,14.27
2018-04-13T14:19:49.137Z,14.29
2018-04-13T14:22:17.557Z,14.28
2018-04-13T14:24:45.949Z,14.29
2018-04-13T14:27:14.393Z,14.23
2018-04-13T14:29:43.636Z,14.21
2018-04-13T14:32:12.105Z,14.16
2018-04-13T14:34:40.498Z,14.13
2018-04-13T14:37:08.970Z,14.27
2018-04-13T14:39:37.407Z,14.15
2018-04-13T14:42:05.865Z,14.11
2018-04-13T14:44:34.370Z,14.12
2018-04-13T14:47:02.712Z,14.12
2018-04-13T14:49:32.383Z,14.13
2018-04-13T14:52:00.799Z,14.24
2018-04-13T14:54:29.240Z,14.24
2018-04-13T14:56:58.875Z,14.07
2018-04-13T14:59:27.261Z,13.93
2018-04-13T15:01:55.683Z,13.93
2018-04-13T15:04:24.067Z,14.00
2018-04-13T15:06:52.424Z,14.03
2018-04-13T15:09:20.718Z,14.19
2018-04-13T15:11:50.218Z,14.16
2018-04-13T15:14:18.611Z,14.33
2018-04-13T15:16:48.111Z,14.26
2018-04-13T15:19:16.514Z,14.16
2018-04-13T15:21:44.994Z,14.21
2018-04-13T15:24:14.362Z,14.21
2018-04-13T15:26:42.833Z,14.20
2018-04-13T15:29:11.288Z,14.13
2018-04-13T15:31:39.692Z,14.28
2018-04-13T15:34:08.152Z,14.36
2018-04-13T15:36:36.541Z,14.36
2018-04-13T15:39:05.058Z,14.02
2018-04-13T15:41:33.417Z,14.12
2018-04-13T15:44:03.276Z,14.00
2018-04-13T15:46:31.688Z,14.01
2018-04-13T15:49:00.148Z,14.01
2018-04-13T15:51:28.772Z,13.85
2018-04-13T15:53:57.143Z,13.74
2018-04-13T15:56:26.869Z,13.75
2018-04-13T15:58:55.261Z,13.91
2018-04-13T16:01:23.650Z,13.97
2018-04-13T16:03:52.010Z,13.83
2018-04-13T16:06:20.389Z,13.80
2018-04-13T16:08:48.811Z,13.83
2018-04-13T16:11:18.431Z,13.83
2018-04-13T16:13:46.894Z,13.85
2018-04-13T16:16:17.924Z,13.78
2018-04-13T16:18:46.285Z,13.81
2018-04-13T16:21:14.641Z,13.78
2018-04-13T16:23:43.002Z,13.80
2018-04-13T16:26:11.422Z,13.79
2018-04-13T16:28:40.055Z,13.88
2018-04-13T16:31:08.421Z,13.83
2018-04-13T16:33:38.093Z,14.00
2018-04-13T16:36:06.492Z,13.91
2018-04-13T16:38:34.889Z,13.82
2018-04-13T16:41:03.307Z,13.82
2018-04-13T16:43:31.722Z,13.70
2018-04-13T16:46:00.129Z,13.60
2018-04-13T16:48:30.157Z,13.70
2018-04-13T16:50:58.604Z,13.56
2018-04-13T16:53:26.970Z,13.61
2018-04-13T16:55:55.544Z,13.57
2018-04-13T16:58:23.942Z,13.67
2018-04-13T17:00:52.300Z,13.60
2018-04-13T17:03:20.673Z,13.60
2018-04-13T17:05:49.006Z,13.46
2018-04-13T17:08:18.672Z,13.51
2018-04-13T17:10:47.116Z,13.33
2018-04-13T17:13:15.567Z,13.27
2018-04-13T17:15:46.035Z,13.15
2018-04-13T17:18:14.406Z,12.99
2018-04-13T17:20:42.831Z,12.94
2018-04-13T17:23:11.345Z,12.98
2018-04-13T17:25:39.841Z,12.92
2018-04-13T17:28:08.197Z,12.82
2018-04-13T17:30:36.560Z,12.78
2018-04-13T17:33:04.890Z,12.86
2018-04-13T17:35:33.292Z,12.83
2018-04-13T17:38:03.048Z,12.71
2018-04-13T17:40:31.372Z,12.88
2018-04-13T17:43:00.555Z,12.86
2018-04-13T17:45:28.965Z,12.88
2018-04-13T17:47:57.361Z,12.86
2018-04-13T17:50:25.730Z,12.81
2018-04-13T17:52:54.073Z,12.79
2018-04-13T17:55:23.448Z,12.87
2018-04-13T17:57:53.516Z,12.85
2018-04-13T18:00:21.966Z,12.77
2018-04-13T18:02:50.267Z,12.75
2018-04-13T18:05:22.783Z,12.55
2018-04-13T18:07:51.116Z,12.64
2018-04-13T18:10:21.770Z,12.66
2018-04-13T18:12:50.144Z,12.46
2018-04-13T18:15:20.041Z,12.22
2018-04-13T18:17:50.486Z,12.10
2018-04-13T18:20:18.883Z,11.96
2018-04-13T18:22:47.561Z,12.02
2018-04-13T18:25:15.983Z,11.83
2018-04-13T18:27:52.005Z,11.62
2018-04-13T18:30:20.380Z,11.45
2018-04-13T18:32:48.744Z,11.45
2018-04-13T18:35:17.299Z,11.38
2018-04-13T18:37:45.675Z,11.27
2018-04-13T18:40:14.108Z,11.15
2018-04-13T18:42:42.521Z,10.72
2018-04-13T18:45:11.857Z,10.63
2018-04-13T18:47:48.652Z,10.67
2018-04-13T18:50:17.080Z,10.57
2018-04-13T18:52:47.576Z,10.56
2018-04-13T18:55:21.985Z,10.39
2018-04-13T18:57:52.573Z,10.37
2018-04-13T19:00:20.879Z,10.18
2018-04-13T19:02:49.375Z,10.07
2018-04-13T19:05:19.889Z,9.97
2018-04-13T19:07:50.815Z,9.91
2018-04-13T19:10:21.321Z,10.07
2018-04-13T19:12:51.854Z,9.98
2018-04-13T19:15:20.249Z,9.81
2018-04-13T19:17:50.286Z,9.99
2018-04-13T19:20:18.709Z,10.17
2018-04-13T19:22:47.087Z,9.93
2018-04-13T19:25:15.519Z,9.76
2018-04-13T19:27:45.896Z,9.80
2018-04-13T19:30:15.912Z,9.73
2018-04-13T19:32:44.352Z,9.53
2018-04-13T19:35:12.756Z,9.45
2018-04-13T19:37:41.169Z,9.31
2018-04-13T19:40:09.577Z,9.29
2018-04-13T19:42:38.010Z,9.27
2018-04-13T19:45:06.397Z,9.32
2018-04-13T19:47:35.136Z,9.34
2018-04-13T19:50:05.447Z,9.30
2018-04-13T19:52:33.854Z,9.27
2018-04-13T19:55:02.339Z,9.15
2018-04-13T19:57:30.804Z,9.20
2018-04-13T19:59:59.188Z,9.23
2018-04-13T20:02:29.728Z,9.30
2018-04-13T20:04:58.109Z,9.16
2018-04-13T20:07:26.860Z,9.19
2018-04-13T20:09:55.209Z,9.23
2018-04-13T20:12:23.554Z,9.35
2018-04-13T20:14:52.179Z,9.41
2018-04-13T20:17:20.635Z,9.41
2018-04-13T20:19:51.047Z,9.39
2018-04-13T20:22:19.478Z,9.22
2018-04-13T20:24:47.851Z,9.22
2018-04-13T20:27:16.464Z,9.12
2018-04-13T20:29:47.021Z,8.92
2018-04-13T20:32:16.390Z,8.76
2018-04-13T20:34:47.005Z,8.76
2018-04-13T20:37:15.359Z,8.63
2018-04-13T20:39:45.745Z,8.54
2018-04-13T20:42:14.173Z,8.59
2018-04-13T20:44:42.757Z,8.61
2018-04-13T20:47:11.138Z,8.73
2018-04-13T20:49:39.501Z,8.75
2018-04-13T20:52:09.882Z,8.75
2018-04-13T20:54:38.389Z,8.65
2018-04-13T20:57:06.724Z,8.66
2018-04-13T20:59:38.749Z,8.65
2018-04-13T21:02:07.183Z,8.63
2018-04-13T21:04:39.117Z,8.71
2018-04-13T21:07:09.609Z,8.63
2018-04-13T21:09:40.035Z,8.69
2018-04-13T21:12:10.291Z,8.68
2018-04-13T21:14:39.621Z,8.62
2018-04-13T21:17:08.036Z,8.53
2018-04-13T21:19:36.426Z,8.57
2018-04-13T21:22:04.868Z,8.57
2018-04-13T21:24:35.304Z,8.47
2018-04-13T21:27:03.678Z,8.43
2018-04-13T21:29:32.230Z,8.44
2018-04-13T21:32:02.811Z,8.45
2018-04-13T21:34:31.195Z,8.39
2018-04-13T21:37:01.746Z,8.38
2018-04-13T21:39:30.089Z,8.32
2018-04-13T21:41:58.503Z,8.22
2018-04-13T21:44:26.936Z,8.38
2018-04-13T21:46:57.457Z,8.37
2018-04-13T21:49:25.823Z,8.28
2018-04-13T21:51:54.277Z,8.21
2018-04-13T21:54:22.720Z,8.10
2018-04-13T21:56:51.140Z,8.15
2018-04-13T21:59:19.570Z,8.20
2018-04-13T22:01:47.941Z,8.18
2018-04-13T22:04:16.668Z,8.20
2018-04-13T22:06:45.013Z,8.20
2018-04-13T22:09:13.368Z,8.24
2018-04-13T22:11:41.733Z,8.17
2018-04-13T22:14:18.361Z,8.14
2018-04-13T22:16:46.731Z,8.17
2018-04-13T22:19:17.513Z,8.19
2018-04-13T22:21:47.989Z,8.18
2018-04-13T22:24:21.419Z,8.16
2018-04-13T22:26:49.829Z,8.12
2018-04-13T22:29:18.259Z,8.13
2018-04-13T22:31:46.683Z,8.13
2018-04-13T22:34:18.072Z,8.15
2018-04-13T22:36:46.496Z,8.08
2018-04-13T22:39:14.874Z,7.96
2018-04-13T22:41:45.252Z,8.06
2018-04-13T22:44:13.979Z,8.00
2018-04-13T22:46:44.481Z,8.10
2018-04-13T22:49:12.920Z,8.17
2018-04-13T22:51:43.448Z,8.11
2018-04-13T22:54:11.936Z,8.15
2018-04-13T22:56:40.422Z,8.12
2018-04-13T22:59:08.825Z,8.21
2018-04-13T23:01:39.559Z,8.17
2018-04-13T23:04:07.991Z,8.13
2018-04-13T23:06:36.622Z,8.12
2018-04-13T23:09:07.148Z,8.05
2018-04-13T23:11:37.907Z,8.08
2018-04-13T23:14:07.428Z,8.13
2018-04-13T23:16:37.758Z,8.08
2018-04-13T23:19:08.400Z,8.10
2018-04-13T23:21:36.817Z,8.17
2018-04-13T23:24:05.304Z,8.16
2018-04-13T23:26:33.747Z,8.20
2018-04-13T23:29:02.387Z,8.17
2018-04-13T23:31:32.835Z,8.14
2018-04-13T23:34:01.264Z,8.15
2018-04-13T23:36:31.837Z,8.21
2018-04-13T23:39:00.254Z,8.20
2018-04-13T23:41:30.739Z,8.20
2018-04-13T23:44:01.329Z,8.18
2018-04-13T23:46:29.850Z,8.22
2018-04-13T23:49:00.363Z,8.20
2018-04-13T23:51:28.837Z,8.28
2018-04-13T23:53:57.276Z,8.20
2018-04-13T23:56:25.699Z,8.11
2018-04-13T23:58:54.131Z,8.23
